createdAt,value
2022-11-27T00:00:36.339Z,7.60
2022-11-27T00:01:39.770Z,8.60
2022-11-27T00:02:41.667Z,8.50
2022-11-27T00:03:43.835Z,8.70
2022-11-27T00:04:45.733Z,8.60
2022-11-27T00:05:58.936Z,7.80
2022-11-27T00:07:00.665Z,8.50
2022-11-27T00:08:02.551Z,8.40
2022-11-27T00:09:08.121Z,8.20
2022-11-27T00:10:10.733Z,8.30
2022-11-27T00:11:15.345Z,7.90
2022-11-27T00:12:17.199Z,7.60
2022-11-27T00:13:19.196Z,7.60
2022-11-27T00:14:20.928Z,7.50
2022-11-27T00:15:28.541Z,7.90
2022-11-27T00:16:31.682Z,7.90
2022-11-27T00:17:33.394Z,8.00
2022-11-27T00:18:36.154Z,8.40
2022-11-27T00:19:38.285Z,8.60
2022-11-27T00:20:40.341Z,8.70
2022-11-27T00:21:42.231Z,8.00
2022-11-27T00:22:44.024Z,8.30
2022-11-27T00:23:46.103Z,8.40
2022-11-27T00:24:47.891Z,8.40
2022-11-27T00:25:51.635Z,9.20
2022-11-27T00:26:53.409Z,8.70
2022-11-27T00:27:55.176Z,9.00
2022-11-27T00:28:57.657Z,9.00
2022-11-27T00:29:59.907Z,9.60
2022-11-27T00:31:04.919Z,9.60
2022-11-27T00:32:08.385Z,9.60
2022-11-27T00:33:10.103Z,9.90
2022-11-27T00:34:12.060Z,9.50
2022-11-27T00:35:14.100Z,9.60
2022-11-27T00:36:16.381Z,9.40
2022-11-27T00:37:18.251Z,9.10
2022-11-27T00:38:20.651Z,8.80
2022-11-27T00:39:22.343Z,9.10
2022-11-27T00:40:25.909Z,8.60
2022-11-27T00:41:30.015Z,8.60
2022-11-27T00:42:31.869Z,8.70
2022-11-27T00:43:43.674Z,9.30
2022-11-27T00:44:46.612Z,8.80
2022-11-27T00:45:51.265Z,8.60
2022-11-27T00:46:54.525Z,8.00
2022-11-27T00:47:57.570Z,8.40
2022-11-27T00:49:01.021Z,8.70
2022-11-27T00:50:04.300Z,8.70
2022-11-27T00:51:09.787Z,8.10
2022-11-27T00:52:11.471Z,8.00
2022-11-27T00:53:13.266Z,8.40
2022-11-27T00:54:15.141Z,8.10
2022-11-27T00:55:17.256Z,8.10
2022-11-27T00:56:27.827Z,8.10
2022-11-27T00:57:29.726Z,8.20
2022-11-27T00:58:31.758Z,8.70
2022-11-27T00:59:33.512Z,8.10
2022-11-27T01:00:35.290Z,8.60
2022-11-27T01:01:40.115Z,8.40
2022-11-27T01:02:42.348Z,8.40
2022-11-27T01:03:44.605Z,9.20
2022-11-27T01:04:47.871Z,9.10
2022-11-27T01:05:50.141Z,8.70
2022-11-27T01:06:52.220Z,9.00
2022-11-27T01:07:54.195Z,8.80
2022-11-27T01:08:57.238Z,9.10
2022-11-27T01:10:00.087Z,8.70
2022-11-27T01:11:03.278Z,8.50
2022-11-27T01:12:05.877Z,9.20
2022-11-27T01:13:07.594Z,9.60
2022-11-27T01:14:14.290Z,8.80
2022-11-27T01:15:16.422Z,8.70
2022-11-27T01:16:21.782Z,8.50
2022-11-27T01:17:23.488Z,8.00
2022-11-27T01:18:25.450Z,8.10
2022-11-27T01:19:27.320Z,8.40
2022-11-27T01:20:29.118Z,8.70
2022-11-27T01:21:33.479Z,8.70
2022-11-27T01:22:35.411Z,8.80
2022-11-27T01:23:37.782Z,8.70
2022-11-27T01:24:39.941Z,7.90
2022-11-27T01:25:41.971Z,8.20
2022-11-27T01:26:44.686Z,8.10
2022-11-27T01:27:46.577Z,8.30
2022-11-27T01:28:52.609Z,8.70
2022-11-27T01:29:54.510Z,8.70
2022-11-27T01:30:58.014Z,9.20
2022-11-27T01:31:59.775Z,9.00
2022-11-27T01:33:01.612Z,9.30
2022-11-27T01:34:12.977Z,9.30
2022-11-27T01:35:14.795Z,9.40
2022-11-27T01:36:16.625Z,8.80
2022-11-27T01:37:18.388Z,9.10
2022-11-27T01:38:20.970Z,9.20
2022-11-27T01:39:24.933Z,9.10
2022-11-27T01:40:27.178Z,9.20
2022-11-27T01:41:31.997Z,9.20
2022-11-27T01:42:33.876Z,9.70
2022-11-27T01:43:46.859Z,9.30
2022-11-27T01:44:52.007Z,9.50
2022-11-27T01:45:59.983Z,9.50
2022-11-27T01:47:13.299Z,9.90
2022-11-27T01:48:15.042Z,10.60
2022-11-27T01:49:36.947Z,10.20
2022-11-27T01:50:40.327Z,10.30
2022-11-27T01:51:51.884Z,10.50
2022-11-27T01:52:59.978Z,10.90
2022-11-27T01:54:01.925Z,10.50
2022-11-27T01:55:20.483Z,10.60
2022-11-27T01:56:23.851Z,10.50
2022-11-27T01:57:32.875Z,11.00
2022-11-27T01:58:35.720Z,11.00
2022-11-27T01:59:37.721Z,10.50
2022-11-27T02:00:40.961Z,10.50
2022-11-27T02:01:42.663Z,10.90
2022-11-27T02:02:45.440Z,10.50
2022-11-27T02:03:47.331Z,10.50
2022-11-27T02:04:49.158Z,10.50
2022-11-27T02:05:50.907Z,10.80
2022-11-27T02:06:53.291Z,11.00
2022-11-27T02:07:57.814Z,10.50
2022-11-27T02:08:59.583Z,11.10
2022-11-27T02:10:01.955Z,11.20
2022-11-27T02:11:12.062Z,10.80
2022-11-27T02:12:36.126Z,11.10
2022-11-27T02:13:50.481Z,12.10
2022-11-27T02:15:08.447Z,12.60
2022-11-27T02:16:27.720Z,12.40
2022-11-27T02:17:54.483Z,12.20
2022-11-27T02:19:01.888Z,11.60
2022-11-27T02:20:41.048Z,11.10
2022-11-27T02:21:52.427Z,11.00
2022-11-27T02:23:26.081Z,11.80
2022-11-27T02:24:43.092Z,11.40
2022-11-27T02:26:05.006Z,11.70
2022-11-27T02:27:34.671Z,11.60
2022-11-27T02:29:13.126Z,11.60
2022-11-27T02:30:15.380Z,10.90
2022-11-27T02:31:27.825Z,11.50
2022-11-27T02:32:49.231Z,11.20
2022-11-27T02:33:54.566Z,11.30
2022-11-27T02:35:15.354Z,11.40
2022-11-27T02:36:26.024Z,11.60
2022-11-27T02:37:50.737Z,11.40
2022-11-27T02:39:07.174Z,12.10
2022-11-27T02:40:14.439Z,11.70
2022-11-27T02:41:19.351Z,11.80
2022-11-27T02:42:23.703Z,12.40
2022-11-27T02:43:36.570Z,12.20
2022-11-27T02:44:47.753Z,13.00
2022-11-27T02:45:53.828Z,13.10
2022-11-27T02:46:56.631Z,12.30
2022-11-27T02:47:59.671Z,12.40
2022-11-27T02:49:09.599Z,12.20
2022-11-27T02:50:19.708Z,11.80
2022-11-27T02:51:32.120Z,11.00
2022-11-27T02:52:34.038Z,11.50
2022-11-27T02:53:40.885Z,11.60
2022-11-27T02:54:45.371Z,10.70
2022-11-27T02:55:50.864Z,10.90
2022-11-27T02:56:54.853Z,11.20
2022-11-27T02:57:59.847Z,11.40
2022-11-27T02:59:05.075Z,11.30
2022-11-27T03:00:07.960Z,11.40
2022-11-27T03:01:11.002Z,11.30
2022-11-27T03:02:20.341Z,10.50
2022-11-27T03:03:27.430Z,10.40
2022-11-27T03:04:34.693Z,10.50
2022-11-27T03:05:42.271Z,10.00
2022-11-27T03:06:53.189Z,10.00
2022-11-27T03:08:05.108Z,10.20
2022-11-27T03:09:11.344Z,10.20
2022-11-27T03:10:29.876Z,10.00
2022-11-27T03:11:32.181Z,10.00
2022-11-27T03:12:34.149Z,9.90
2022-11-27T03:13:43.591Z,10.30
2022-11-27T03:14:47.150Z,10.40
2022-11-27T03:16:01.809Z,10.20
2022-11-27T03:17:18.485Z,10.40
2022-11-27T03:18:59.250Z,10.70
2022-11-27T03:20:21.944Z,10.50
2022-11-27T03:21:39.025Z,10.40
2022-11-27T03:22:40.987Z,10.40
2022-11-27T03:23:44.116Z,10.40
2022-11-27T03:24:46.098Z,10.40
2022-11-27T03:25:48.018Z,10.40
2022-11-27T03:26:50.508Z,10.50
2022-11-27T03:28:05.037Z,11.00
2022-11-27T03:29:12.554Z,10.50
2022-11-27T03:30:14.965Z,10.50
2022-11-27T03:31:17.314Z,10.10
2022-11-27T03:32:19.459Z,10.40
2022-11-27T03:33:21.808Z,10.00
2022-11-27T03:34:23.761Z,9.30
2022-11-27T03:35:27.638Z,9.80
2022-11-27T03:36:29.301Z,9.60
2022-11-27T03:37:31.221Z,9.40
2022-11-27T03:38:33.009Z,8.90
2022-11-27T03:39:35.107Z,8.80
2022-11-27T03:41:06.161Z,8.90
2022-11-27T03:42:23.266Z,8.60
2022-11-27T03:43:29.995Z,8.10
2022-11-27T03:45:00.953Z,8.30
2022-11-27T03:46:16.870Z,8.40
2022-11-27T03:47:37.455Z,8.20
2022-11-27T03:48:48.702Z,8.70
2022-11-27T03:49:50.714Z,8.60
2022-11-27T03:51:02.372Z,8.30
2022-11-27T03:52:24.007Z,8.80
2022-11-27T03:53:47.559Z,8.70
2022-11-27T03:55:08.061Z,9.20
2022-11-27T03:56:24.959Z,10.10
2022-11-27T03:57:39.829Z,10.10
2022-11-27T03:58:44.239Z,9.90
2022-11-27T03:59:49.022Z,9.20
2022-11-27T04:00:54.067Z,9.20
2022-11-27T04:01:56.238Z,8.90
2022-11-27T04:02:58.278Z,9.10
2022-11-27T04:04:00.209Z,9.00
2022-11-27T04:05:02.127Z,9.40
2022-11-27T04:06:04.052Z,8.90
2022-11-27T04:07:06.843Z,9.20
2022-11-27T04:08:08.630Z,8.70
2022-11-27T04:09:10.705Z,9.30
2022-11-27T04:10:13.040Z,9.70
2022-11-27T04:11:15.878Z,9.40
2022-11-27T04:12:17.600Z,9.10
2022-11-27T04:13:19.713Z,9.00
2022-11-27T04:14:21.434Z,8.40
2022-11-27T04:15:23.135Z,9.10
2022-11-27T04:16:25.041Z,8.60
2022-11-27T04:17:27.199Z,8.80
2022-11-27T04:18:29.007Z,9.00
2022-11-27T04:19:30.856Z,9.10
2022-11-27T04:20:32.750Z,9.10
2022-11-27T04:21:34.486Z,9.30
2022-11-27T04:22:36.380Z,9.10
2022-11-27T04:23:38.958Z,8.70
2022-11-27T04:24:40.843Z,9.10
2022-11-27T04:25:43.075Z,8.90
2022-11-27T04:26:44.771Z,9.60
2022-11-27T04:27:46.578Z,9.40
2022-11-27T04:28:48.317Z,9.40
2022-11-27T04:29:50.279Z,9.50
2022-11-27T04:30:53.497Z,9.70
2022-11-27T04:31:55.405Z,9.60
2022-11-27T04:32:58.690Z,9.60
2022-11-27T04:34:01.004Z,9.20
2022-11-27T04:35:02.935Z,8.60
2022-11-27T04:36:05.088Z,8.60
2022-11-27T04:37:06.855Z,8.40
2022-11-27T04:38:09.129Z,7.60
2022-11-27T04:39:10.934Z,7.90
2022-11-27T04:40:13.339Z,8.50
2022-11-27T04:41:15.340Z,8.00
2022-11-27T04:42:17.174Z,8.40
2022-11-27T04:43:19.211Z,8.60
2022-11-27T04:44:23.205Z,8.80
2022-11-27T04:45:25.008Z,8.80
2022-11-27T04:46:29.349Z,9.40
2022-11-27T04:47:31.210Z,9.80
2022-11-27T04:48:33.048Z,9.60
2022-11-27T04:49:35.117Z,9.10
2022-11-27T04:50:37.235Z,9.30
2022-11-27T04:51:38.999Z,9.80
2022-11-27T04:52:40.684Z,9.60
2022-11-27T04:53:42.455Z,9.20
2022-11-27T04:54:44.496Z,9.10
2022-11-27T04:55:46.209Z,8.90
2022-11-27T04:56:48.241Z,9.00
2022-11-27T04:57:50.147Z,9.00
2022-11-27T04:58:51.948Z,9.50
2022-11-27T04:59:55.515Z,9.30
2022-11-27T05:00:58.515Z,9.30
2022-11-27T05:02:00.917Z,8.80
2022-11-27T05:03:02.833Z,8.40
2022-11-27T05:04:04.882Z,9.10
2022-11-27T05:05:06.903Z,9.40
2022-11-27T05:06:09.251Z,9.80
2022-11-27T05:07:11.484Z,10.10
2022-11-27T05:08:13.471Z,9.80
2022-11-27T05:09:17.761Z,9.70
2022-11-27T05:10:19.602Z,9.40
2022-11-27T05:11:21.333Z,9.20
2022-11-27T05:12:23.193Z,8.80
2022-11-27T05:13:24.863Z,8.50
2022-11-27T05:14:29.399Z,8.30
2022-11-27T05:15:31.428Z,8.70
2022-11-27T05:16:33.262Z,8.70
2022-11-27T05:17:34.995Z,8.60
2022-11-27T05:18:36.794Z,8.70
2022-11-27T05:19:38.660Z,8.40
2022-11-27T05:20:40.507Z,8.10
2022-11-27T05:21:43.856Z,7.10
2022-11-27T05:22:46.195Z,7.30
2022-11-27T05:23:47.960Z,7.30
2022-11-27T05:24:50.072Z,6.40
2022-11-27T05:25:52.049Z,7.60
2022-11-27T05:26:54.838Z,7.40
2022-11-27T05:27:56.507Z,7.40
2022-11-27T05:28:58.253Z,8.00
2022-11-27T05:30:00.117Z,8.10
2022-11-27T05:31:02.162Z,8.10
2022-11-27T05:32:04.555Z,8.10
2022-11-27T05:33:06.353Z,7.80
2022-11-27T05:34:09.105Z,8.10
2022-11-27T05:35:10.957Z,8.80
2022-11-27T05:36:12.845Z,8.90
2022-11-27T05:37:19.212Z,8.50
2022-11-27T05:38:21.497Z,8.30
2022-11-27T05:39:23.939Z,9.10
2022-11-27T05:40:25.626Z,9.90
2022-11-27T05:41:27.628Z,9.90
2022-11-27T05:42:29.643Z,9.60
2022-11-27T05:43:31.393Z,9.30
2022-11-27T05:44:33.270Z,8.70
2022-11-27T05:45:36.854Z,8.70
2022-11-27T05:46:38.675Z,8.50
2022-11-27T05:47:40.648Z,9.10
2022-11-27T05:48:42.649Z,8.90
2022-11-27T05:49:44.477Z,9.00
2022-11-27T05:50:46.646Z,9.30
2022-11-27T05:51:51.302Z,9.20
2022-11-27T05:52:53.850Z,8.90
2022-11-27T05:53:55.663Z,8.60
2022-11-27T05:54:57.373Z,8.80
2022-11-27T05:56:08.720Z,9.30
2022-11-27T05:57:10.500Z,8.80
2022-11-27T05:58:12.429Z,9.10
2022-11-27T05:59:14.607Z,9.80
2022-11-27T06:00:16.916Z,9.60
2022-11-27T06:01:20.011Z,8.80
2022-11-27T06:02:27.900Z,8.50
2022-11-27T06:03:31.492Z,8.60
2022-11-27T06:04:36.572Z,8.60
2022-11-27T06:05:42.081Z,8.10
2022-11-27T06:06:43.918Z,7.90
2022-11-27T06:07:45.845Z,8.30
2022-11-27T06:08:47.947Z,8.10
2022-11-27T06:09:49.819Z,8.30
2022-11-27T06:10:51.687Z,8.30
2022-11-27T06:11:53.399Z,8.20
2022-11-27T06:12:55.506Z,8.10
2022-11-27T06:13:57.751Z,7.90
2022-11-27T06:14:59.695Z,8.20
2022-11-27T06:16:09.246Z,8.20
2022-11-27T06:17:11.171Z,8.10
2022-11-27T06:18:13.169Z,7.90
2022-11-27T06:19:14.982Z,6.90
2022-11-27T06:20:17.465Z,6.90
2022-11-27T06:21:20.155Z,6.70
2022-11-27T06:22:21.959Z,6.90
2022-11-27T06:23:23.706Z,7.50
2022-11-27T06:24:25.565Z,7.10
2022-11-27T06:25:28.038Z,7.00
2022-11-27T06:26:32.417Z,6.80
2022-11-27T06:27:36.038Z,7.10
2022-11-27T06:28:38.489Z,7.10
2022-11-27T06:29:40.501Z,7.00
2022-11-27T06:30:42.206Z,6.70
2022-11-27T06:31:44.056Z,7.00
2022-11-27T06:32:46.200Z,7.10
2022-11-27T06:33:49.628Z,7.20
2022-11-27T06:34:51.741Z,7.30
2022-11-27T06:35:55.524Z,7.50
2022-11-27T06:36:57.657Z,7.20
2022-11-27T06:37:59.370Z,6.60
2022-11-27T06:39:02.407Z,6.60
2022-11-27T06:40:05.155Z,6.60
2022-11-27T06:41:12.856Z,6.80
2022-11-27T06:42:14.837Z,7.00
2022-11-27T06:43:16.854Z,7.40
2022-11-27T06:44:18.706Z,7.40
2022-11-27T06:45:20.487Z,7.10
2022-11-27T06:46:24.757Z,7.40
2022-11-27T06:47:26.843Z,7.30
2022-11-27T06:48:29.265Z,6.80
2022-11-27T06:49:30.985Z,7.40
2022-11-27T06:50:32.711Z,7.60
2022-11-27T06:51:34.718Z,8.00
2022-11-27T06:52:40.350Z,8.10
2022-11-27T06:53:43.792Z,8.00
2022-11-27T06:54:45.611Z,7.80
2022-11-27T06:55:47.460Z,7.50
2022-11-27T06:56:50.817Z,7.60
2022-11-27T06:57:53.045Z,7.60
2022-11-27T06:58:57.040Z,7.40
2022-11-27T06:59:59.082Z,8.00
2022-11-27T07:01:03.252Z,8.10
2022-11-27T07:02:05.054Z,7.80
2022-11-27T07:03:07.106Z,7.80
2022-11-27T07:04:14.258Z,7.80
2022-11-27T07:05:17.443Z,8.00
2022-11-27T07:06:22.182Z,7.80
2022-11-27T07:07:24.088Z,7.90
2022-11-27T07:08:25.923Z,8.00
2022-11-27T07:09:27.755Z,8.00
2022-11-27T07:10:29.621Z,7.50
2022-11-27T07:11:32.304Z,7.10
2022-11-27T07:12:34.185Z,7.70
2022-11-27T07:13:35.912Z,7.60
2022-11-27T07:14:38.155Z,7.20
2022-11-27T07:15:40.180Z,7.30
2022-11-27T07:16:41.987Z,7.70
2022-11-27T07:17:43.760Z,7.80
2022-11-27T07:18:51.711Z,7.80
2022-11-27T07:19:53.622Z,7.90
2022-11-27T07:20:56.808Z,7.20
2022-11-27T07:21:59.925Z,6.90
2022-11-27T07:23:01.931Z,6.80
2022-11-27T07:24:03.988Z,6.80
2022-11-27T07:25:06.262Z,6.70
2022-11-27T07:26:13.615Z,6.50
2022-11-27T07:27:15.319Z,6.20
2022-11-27T07:28:19.028Z,6.20
2022-11-27T07:29:21.055Z,7.00
2022-11-27T07:30:22.811Z,7.00
2022-11-27T07:31:28.445Z,6.20
2022-11-27T07:32:31.143Z,6.40
2022-11-27T07:33:32.861Z,6.30
2022-11-27T07:34:35.980Z,6.20
2022-11-27T07:35:37.844Z,6.20
2022-11-27T07:36:39.825Z,6.30
2022-11-27T07:37:41.899Z,6.30
2022-11-27T07:38:44.407Z,6.80
2022-11-27T07:40:01.940Z,6.80
2022-11-27T07:41:06.190Z,6.20
2022-11-27T07:42:36.934Z,6.80
2022-11-27T07:43:33.385Z,7.20
2022-11-27T07:44:36.411Z,6.40
2022-11-27T07:45:38.219Z,7.20
2022-11-27T07:46:39.995Z,6.90
2022-11-27T07:47:42.799Z,6.80
2022-11-27T07:48:45.301Z,6.90
2022-11-27T07:49:48.295Z,7.50
2022-11-27T07:50:50.383Z,7.00
2022-11-27T07:51:54.633Z,7.70
2022-11-27T07:52:56.527Z,7.40
2022-11-27T07:54:00.160Z,7.90
2022-11-27T07:55:03.525Z,7.70
2022-11-27T07:56:06.948Z,7.90
2022-11-27T07:57:09.897Z,8.10
2022-11-27T07:58:11.851Z,8.50
2022-11-27T07:59:13.502Z,9.10
2022-11-27T08:00:15.980Z,8.60
2022-11-27T08:01:19.582Z,8.40
2022-11-27T08:02:21.775Z,8.00
2022-11-27T08:03:24.247Z,7.60
2022-11-27T08:04:27.402Z,6.90
2022-11-27T08:05:29.583Z,6.80
2022-11-27T08:06:31.659Z,6.80
2022-11-27T08:07:35.136Z,7.00
2022-11-27T08:08:37.034Z,6.80
2022-11-27T08:09:40.073Z,7.10
2022-11-27T08:10:42.356Z,7.30
2022-11-27T08:11:44.145Z,7.40
2022-11-27T08:12:46.211Z,7.90
2022-11-27T08:13:49.976Z,7.40
2022-11-27T08:14:52.099Z,6.10
2022-11-27T08:15:56.242Z,6.70
2022-11-27T08:17:00.221Z,6.20
2022-11-27T08:18:02.163Z,6.20
2022-11-27T08:19:04.166Z,6.30
2022-11-27T08:20:09.195Z,6.00
2022-11-27T08:21:14.693Z,5.70
2022-11-27T08:22:19.934Z,6.00
2022-11-27T08:23:24.702Z,5.50
2022-11-27T08:24:26.622Z,5.20
2022-11-27T08:25:29.209Z,4.80
2022-11-27T08:26:33.475Z,4.30
2022-11-27T08:27:37.416Z,4.70
2022-11-27T08:28:40.440Z,4.50
2022-11-27T08:29:42.832Z,4.60
2022-11-27T08:30:46.755Z,4.10
2022-11-27T08:31:50.276Z,4.50
2022-11-27T08:32:54.778Z,4.20
2022-11-27T08:33:58.008Z,3.30
2022-11-27T08:34:59.959Z,3.00
2022-11-27T08:36:02.438Z,3.60
2022-11-27T08:37:05.910Z,4.20
2022-11-27T08:38:07.590Z,4.00
2022-11-27T08:39:09.502Z,3.70
2022-11-27T08:40:17.301Z,3.60
2022-11-27T08:41:19.717Z,3.60
2022-11-27T08:42:23.263Z,4.00
2022-11-27T08:43:26.102Z,4.10
2022-11-27T08:44:28.354Z,3.30
2022-11-27T08:45:30.427Z,3.80
2022-11-27T08:46:33.013Z,3.30
2022-11-27T08:47:34.844Z,3.80
2022-11-27T08:48:37.070Z,3.80
2022-11-27T08:49:42.528Z,4.20
2022-11-27T08:50:46.947Z,4.10
2022-11-27T08:51:51.357Z,4.00
2022-11-27T08:52:53.533Z,4.10
2022-11-27T08:53:55.863Z,3.80
2022-11-27T08:54:58.642Z,5.00
2022-11-27T08:56:08.934Z,4.50
2022-11-27T08:57:10.947Z,4.50
2022-11-27T08:58:14.077Z,4.80
2022-11-27T08:59:16.147Z,5.10
2022-11-27T09:00:27.943Z,4.70
2022-11-27T09:01:32.779Z,3.80
2022-11-27T09:02:35.163Z,5.00
2022-11-27T09:03:38.974Z,5.10
2022-11-27T09:04:42.240Z,4.90
2022-11-27T09:05:44.850Z,4.40
2022-11-27T09:06:51.034Z,5.50
2022-11-27T09:07:54.984Z,4.70
2022-11-27T09:08:58.931Z,4.20
2022-11-27T09:10:00.659Z,4.40
2022-11-27T09:11:04.710Z,4.80
2022-11-27T09:12:06.840Z,5.00
2022-11-27T09:13:08.530Z,4.60
2022-11-27T09:14:11.920Z,5.30
2022-11-27T09:15:16.632Z,5.60
2022-11-27T09:16:21.114Z,5.90
2022-11-27T09:17:22.977Z,5.10
2022-11-27T09:18:25.947Z,4.90
2022-11-27T09:19:30.440Z,5.30
2022-11-27T09:20:32.281Z,4.50
2022-11-27T09:21:35.343Z,4.50
2022-11-27T09:22:37.288Z,4.30
2022-11-27T09:23:40.430Z,5.10
2022-11-27T09:24:42.592Z,5.10
2022-11-27T09:25:44.972Z,5.20
2022-11-27T09:26:48.658Z,4.70
2022-11-27T09:27:52.782Z,4.30
2022-11-27T09:28:58.508Z,4.10
2022-11-27T09:30:00.626Z,4.60
2022-11-27T09:31:06.560Z,4.60
2022-11-27T09:32:08.708Z,4.90
2022-11-27T09:33:10.718Z,4.90
2022-11-27T09:34:12.664Z,4.30
2022-11-27T09:35:14.968Z,4.40
2022-11-27T09:36:24.918Z,4.90
2022-11-27T09:37:27.063Z,4.50
2022-11-27T09:38:28.943Z,4.20
2022-11-27T09:39:34.094Z,4.90
2022-11-27T09:40:36.105Z,5.10
2022-11-27T09:41:54.600Z,4.70
2022-11-27T09:43:04.587Z,4.50
2022-11-27T09:44:45.514Z,4.80
2022-11-27T09:45:55.369Z,5.50
2022-11-27T09:47:14.723Z,5.20
2022-11-27T09:48:25.684Z,5.50
2022-11-27T09:50:25.903Z,5.40
2022-11-27T09:51:34.499Z,5.40
2022-11-27T09:52:48.022Z,5.50
2022-11-27T09:53:59.771Z,5.50
2022-11-27T09:55:21.413Z,5.50
2022-11-27T09:56:26.921Z,5.80
2022-11-27T09:57:34.755Z,5.80
2022-11-27T09:58:40.320Z,6.10
2022-11-27T09:59:55.678Z,6.10
2022-11-27T10:00:57.463Z,6.40
2022-11-27T10:01:59.386Z,6.40
2022-11-27T10:03:01.475Z,7.40
2022-11-27T10:04:03.435Z,6.90
2022-11-27T10:05:21.835Z,6.90
2022-11-27T10:06:41.940Z,7.00
2022-11-27T10:08:22.509Z,7.00
2022-11-27T10:09:46.875Z,6.80
2022-11-27T10:10:59.182Z,5.90
2022-11-27T10:12:16.225Z,5.60
2022-11-27T10:13:33.071Z,5.00
2022-11-27T10:15:17.580Z,4.70
2022-11-27T10:16:45.880Z,5.30
2022-11-27T10:17:55.662Z,4.90
2022-11-27T10:19:23.764Z,5.00
2022-11-27T10:20:41.101Z,5.00
2022-11-27T10:21:58.637Z,5.30
2022-11-27T10:23:00.262Z,4.90
2022-11-27T10:24:36.877Z,4.90
2022-11-27T10:25:48.143Z,5.20
2022-11-27T10:26:52.901Z,4.90
2022-11-27T10:28:18.527Z,4.80
2022-11-27T10:29:47.282Z,4.90
2022-11-27T10:31:02.909Z,4.60
2022-11-27T10:32:46.801Z,4.80
2022-11-27T10:33:49.338Z,4.90
2022-11-27T10:34:59.710Z,4.70
2022-11-27T10:36:01.642Z,5.00
2022-11-27T10:37:31.259Z,5.10
2022-11-27T10:38:39.629Z,4.20
2022-11-27T10:39:57.488Z,3.50
2022-11-27T10:41:48.781Z,3.40
2022-11-27T10:43:08.091Z,2.40
2022-11-27T10:44:35.006Z,3.50
2022-11-27T10:46:04.623Z,3.40
2022-11-27T10:47:10.456Z,3.50
2022-11-27T10:48:13.673Z,2.70
2022-11-27T10:49:15.336Z,3.10
2022-11-27T10:50:19.211Z,3.20
2022-11-27T10:51:25.089Z,3.20
2022-11-27T10:52:27.219Z,3.20
2022-11-27T10:53:37.220Z,3.70
2022-11-27T10:54:39.871Z,3.30
2022-11-27T10:56:16.212Z,2.90
2022-11-27T10:57:32.934Z,2.40
2022-11-27T10:58:50.874Z,2.90
2022-11-27T11:00:02.134Z,3.30
2022-11-27T11:01:07.181Z,2.50
2022-11-27T11:02:32.263Z,2.10
2022-11-27T11:03:34.674Z,2.10
2022-11-27T11:04:38.357Z,2.40
2022-11-27T11:06:11.713Z,1.90
2022-11-27T11:07:03.131Z,1.70
2022-11-27T11:08:20.556Z,1.30
2022-11-27T11:09:22.407Z,1.00
2022-11-27T11:10:33.138Z,1.00
2022-11-27T11:11:34.939Z,1.30
2022-11-27T11:12:37.048Z,1.40
2022-11-27T11:13:43.688Z,1.00
2022-11-27T11:14:53.760Z,1.00
2022-11-27T11:16:06.051Z,1.00
2022-11-27T11:17:16.420Z,1.00
2022-11-27T11:18:20.232Z,1.00
2022-11-27T11:19:44.238Z,1.00
2022-11-27T11:20:57.075Z,1.00
2022-11-27T11:22:00.959Z,1.00
2022-11-27T11:23:05.844Z,1.00
2022-11-27T11:24:13.985Z,1.00
2022-11-27T11:25:18.862Z,1.00
2022-11-27T11:26:23.475Z,1.00
2022-11-27T11:27:31.939Z,1.00
2022-11-27T11:28:43.571Z,1.00
2022-11-27T11:29:54.979Z,1.00
2022-11-27T11:31:02.235Z,1.00
2022-11-27T11:32:13.679Z,1.00
2022-11-27T11:33:15.571Z,1.00
2022-11-27T11:34:23.321Z,1.00
2022-11-27T11:35:29.439Z,1.00
2022-11-27T11:36:31.532Z,1.00
2022-11-27T11:37:36.250Z,1.00
2022-11-27T11:38:38.739Z,1.00
2022-11-27T11:39:45.876Z,1.00
2022-11-27T11:41:03.048Z,1.00
2022-11-27T11:42:11.345Z,1.00
2022-11-27T11:43:30.369Z,1.00
2022-11-27T11:44:41.438Z,1.00
2022-11-27T11:45:49.034Z,1.00
2022-11-27T11:46:53.160Z,1.00
2022-11-27T11:48:03.922Z,1.00
2022-11-27T11:49:08.627Z,1.00
2022-11-27T11:50:13.924Z,1.00
2022-11-27T11:51:34.270Z,1.00
2022-11-27T11:52:47.183Z,1.00
2022-11-27T11:54:07.781Z,1.00
2022-11-27T11:55:48.409Z,1.00
2022-11-27T11:56:52.635Z,1.00
2022-11-27T11:58:05.854Z,1.00
2022-11-27T11:59:45.291Z,1.00
2022-11-27T12:01:19.371Z,1.00
2022-11-27T12:03:01.302Z,1.00
2022-11-27T12:04:35.723Z,1.00
2022-11-27T12:05:42.731Z,1.00
2022-11-27T12:06:59.171Z,1.00
2022-11-27T12:08:23.815Z,1.00
2022-11-27T12:09:39.904Z,1.00
2022-11-27T12:10:58.353Z,1.00
2022-11-27T12:12:24.482Z,1.00
2022-11-27T12:13:47.758Z,1.00
2022-11-27T12:14:59.649Z,1.00
2022-11-27T12:16:09.544Z,1.00
2022-11-27T12:17:53.836Z,1.00
2022-11-27T12:19:19.051Z,1.00
2022-11-27T12:20:33.745Z,1.00
2022-11-27T12:22:07.466Z,1.00
2022-11-27T12:23:34.183Z,1.00
2022-11-27T12:24:36.041Z,1.00
2022-11-27T12:26:14.636Z,1.00
2022-11-27T12:27:55.588Z,1.00
2022-11-27T12:29:28.529Z,1.00
2022-11-27T12:30:55.759Z,1.00
2022-11-27T12:32:30.042Z,1.00
2022-11-27T12:33:49.910Z,1.00
2022-11-27T12:35:21.110Z,1.00
2022-11-27T12:36:26.959Z,1.00
2022-11-27T12:37:42.476Z,1.00
2022-11-27T12:38:59.262Z,1.00
2022-11-27T12:40:19.954Z,1.00
2022-11-27T12:41:24.919Z,1.00
2022-11-27T12:43:18.847Z,1.00
2022-11-27T12:44:36.792Z,1.00
2022-11-27T12:45:44.296Z,1.00
2022-11-27T12:46:56.906Z,1.00
2022-11-27T12:48:44.175Z,1.00
2022-11-27T12:49:56.166Z,1.00
2022-11-27T12:51:08.146Z,1.00
2022-11-27T12:52:27.734Z,1.00
2022-11-27T12:53:41.157Z,1.00
2022-11-27T12:54:53.459Z,1.00
2022-11-27T12:56:50.719Z,1.00
2022-11-27T12:58:07.556Z,1.00
2022-11-27T12:59:16.495Z,1.00
2022-11-27T13:00:24.912Z,1.00
2022-11-27T13:01:33.667Z,1.00
2022-11-27T13:03:01.833Z,1.00
2022-11-27T13:04:32.021Z,1.00
2022-11-27T13:06:00.108Z,1.00
2022-11-27T13:07:14.174Z,1.00
2022-11-27T13:08:24.257Z,1.00
2022-11-27T13:10:07.075Z,1.00
2022-11-27T13:11:13.873Z,1.00
2022-11-27T13:12:29.960Z,1.00
2022-11-27T13:13:48.236Z,1.00
2022-11-27T13:14:58.649Z,1.00
2022-11-27T13:16:10.174Z,1.00
2022-11-27T13:17:16.791Z,1.00
2022-11-27T13:18:33.583Z,1.00
2022-11-27T13:19:49.625Z,1.00
2022-11-27T13:20:53.052Z,1.00
2022-11-27T13:21:57.285Z,1.00
2022-11-27T13:22:59.300Z,1.00
2022-11-27T13:24:02.142Z,1.00
2022-11-27T13:25:05.128Z,1.00
2022-11-27T13:26:15.396Z,1.00
2022-11-27T13:27:23.710Z,1.00
2022-11-27T13:28:43.642Z,1.00
2022-11-27T13:30:00.968Z,1.00
2022-11-27T13:31:04.060Z,1.00
2022-11-27T13:32:07.903Z,1.00
2022-11-27T13:33:37.855Z,1.00
2022-11-27T13:34:47.023Z,1.00
2022-11-27T13:35:49.980Z,1.00
2022-11-27T13:37:04.867Z,1.00
2022-11-27T13:38:26.492Z,1.00
2022-11-27T13:39:40.539Z,1.00
2022-11-27T13:40:44.777Z,1.00
2022-11-27T13:41:48.784Z,1.00
2022-11-27T13:42:55.909Z,1.00
2022-11-27T13:43:58.529Z,1.00
2022-11-27T13:45:11.187Z,1.00
2022-11-27T13:46:21.093Z,1.00
2022-11-27T13:47:26.030Z,1.00
2022-11-27T13:48:34.433Z,1.00
2022-11-27T13:49:38.246Z,1.00
2022-11-27T13:50:47.187Z,1.00
2022-11-27T13:51:49.249Z,1.00
2022-11-27T13:52:54.894Z,1.00
2022-11-27T13:54:16.087Z,1.00
2022-11-27T13:55:26.198Z,1.00
2022-11-27T13:56:35.542Z,1.00
2022-11-27T13:57:39.350Z,1.00
2022-11-27T13:58:43.644Z,1.00
2022-11-27T14:00:13.106Z,1.00
2022-11-27T14:01:21.669Z,1.00
2022-11-27T14:02:24.662Z,1.00
2022-11-27T14:03:30.448Z,1.00
2022-11-27T14:04:33.661Z,1.00
2022-11-27T14:05:42.550Z,1.00
2022-11-27T14:06:51.254Z,1.00
2022-11-27T14:08:00.651Z,1.00
2022-11-27T14:09:05.751Z,1.00
2022-11-27T14:10:19.895Z,1.00
2022-11-27T14:11:36.552Z,1.00
2022-11-27T14:12:38.630Z,1.00
2022-11-27T14:13:46.827Z,1.00
2022-11-27T14:15:21.040Z,1.00
2022-11-27T14:16:31.436Z,1.00
2022-11-27T14:17:38.328Z,1.00
2022-11-27T14:18:40.261Z,1.00
2022-11-27T14:19:45.205Z,1.00
2022-11-27T14:20:57.985Z,1.00
2022-11-27T14:22:00.850Z,1.00
2022-11-27T14:23:18.277Z,1.00
2022-11-27T14:24:53.472Z,1.00
2022-11-27T14:26:30.264Z,1.00
2022-11-27T14:27:36.219Z,1.00
2022-11-27T14:28:38.366Z,1.00
2022-11-27T14:29:40.303Z,1.00
2022-11-27T14:30:50.884Z,1.00
2022-11-27T14:32:00.780Z,1.00
2022-11-27T14:33:04.625Z,1.00
2022-11-27T14:34:24.617Z,1.00
2022-11-27T14:35:27.893Z,1.00
2022-11-27T14:36:32.082Z,1.00
2022-11-27T14:37:33.982Z,1.00
2022-11-27T14:38:37.250Z,1.00
2022-11-27T14:39:41.162Z,1.00
2022-11-27T14:40:43.840Z,1.00
2022-11-27T14:41:58.941Z,1.00
2022-11-27T14:43:14.354Z,1.00
2022-11-27T14:44:17.343Z,1.00
2022-11-27T14:45:22.308Z,1.00
2022-11-27T14:46:25.170Z,1.00
2022-11-27T14:47:27.116Z,1.00
2022-11-27T14:48:42.955Z,1.00
2022-11-27T14:49:45.710Z,1.00
2022-11-27T14:50:49.000Z,1.00
2022-11-27T14:51:51.462Z,1.00
2022-11-27T14:52:57.426Z,1.00
2022-11-27T14:54:05.380Z,1.00
2022-11-27T14:55:16.353Z,1.00
2022-11-27T14:56:19.755Z,1.00